Time;durP1;ratioP1;P1;durP2;ratioP2;P2;SDS_P1;SDS_P2;PMS_P1;PMS_P2;Temp;Humidity;BMP_temperature;BMP_pressure;BME280_temperature;BME280_humidity;BME280_pressure;Samples;Min_cycle;Max_cycle;Signal;HPM_P1;HPM_P2
2023/09/01 00:01:05;;;;;;;1.70;0.85;;;24.90;64.70;;;;;;6338227;22;20239;-87
2023/09/01 00:03:34;;;;;;;0.65;0.50;;;24.90;64.70;;;;;;6338122;22;20165;-89
2023/09/01 00:06:15;;;;;;;0.35;0.35;;;24.80;64.90;;;;;;6338563;22;20211;-89
2023/09/01 00:08:44;;;;;;;0.30;0.30;;;24.80;65.00;;;;;;6337908;22;20164;-90
2023/09/01 00:11:14;;;;;;;0.20;0.20;;;24.80;64.80;;;;;;6337355;22;20191;-88
2023/09/01 00:13:47;;;;;;;0.75;0.38;;;24.80;64.70;;;;;;6338259;22;20243;-91
2023/09/01 00:16:20;;;;;;;0.70;0.70;;;24.80;64.70;;;;;;6338356;22;20167;-91
2023/09/01 00:18:49;;;;;;;0.75;0.65;;;24.80;64.90;;;;;;6338416;22;20214;-90
2023/09/01 00:21:18;;;;;;;0.52;0.45;;;24.80;65.00;;;;;;6337842;22;20175;-89
2023/09/01 00:23:50;;;;;;;0.40;0.40;;;24.80;65.20;;;;;;6338915;22;20215;-91
2023/09/01 00:26:21;;;;;;;0.65;0.50;;;24.80;65.10;;;;;;6338606;22;20169;-90
2023/09/01 00:28:55;;;;;;;0.57;0.57;;;24.70;65.10;;;;;;6338990;22;20232;-91
2023/09/01 00:31:29;;;;;;;0.40;0.40;;;24.70;65.00;;;;;;6338968;22;20184;-90
2023/09/01 00:34:00;;;;;;;0.30;0.30;;;24.70;65.10;;;;;;6340386;22;20243;-91
2023/09/01 00:36:29;;;;;;;0.73;0.60;;;24.70;65.00;;;;;;6339620;22;20156;-88
2023/09/01 00:38:58;;;;;;;0.32;0.32;;;24.70;65.00;;;;;;6339838;22;20169;-89
2023/09/01 00:41:29;;;;;;;0.20;0.20;;;24.70;65.00;;;;;;6338872;22;20279;-88
2023/09/01 00:43:58;;;;;;;1.30;0.50;;;24.70;64.90;;;;;;6340330;22;20160;-88
2023/09/01 00:46:27;;;;;;;2.08;0.70;;;24.70;64.90;;;;;;6338444;22;20179;-88
2023/09/01 00:48:58;;;;;;;1.13;0.57;;;24.70;64.90;;;;;;6340134;22;20586;-89
2023/09/01 00:51:27;;;;;;;0.40;0.40;;;24.70;65.00;;;;;;6339317;22;20192;-90
2023/09/01 00:53:56;;;;;;;0.57;0.57;;;24.60;64.90;;;;;;6340045;22;20165;-88
2023/09/01 00:56:25;;;;;;;0.20;0.20;;;24.60;65.00;;;;;;6338449;22;20501;-89
2023/09/01 00:58:56;;;;;;;2.28;1.27;;;24.60;65.10;;;;;;6340133;22;20168;-89
2023/09/01 01:01:24;;;;;;;0.88;0.43;;;24.60;65.70;;;;;;6339373;22;20172;-90
2023/09/01 01:03:53;;;;;;;1.02;0.85;;;24.50;65.70;;;;;;6339160;22;20171;-88
2023/09/01 01:06:36;;;;;;;0.20;0.20;;;24.50;66.10;;;;;;6338157;22;20164;-89
2023/09/01 01:09:12;;;;;;;1.50;0.70;;;24.50;66.60;;;;;;6338435;22;20170;-88
2023/09/01 01:11:46;;;;;;;0.30;0.30;;;24.40;66.40;;;;;;6339652;22;20263;-88
2023/09/01 01:14:23;;;;;;;0.47;0.47;;;24.40;66.40;;;;;;6339528;22;20252;-89
2023/09/01 01:16:57;;;;;;;0.28;0.28;;;24.30;66.30;;;;;;6337128;22;20677;-90
2023/09/01 01:19:45;;;;;;;1.08;0.65;;;24.40;66.40;;;;;;6339915;22;20160;-91
2023/09/01 01:22:17;;;;;;;0.82;0.43;;;24.30;66.40;;;;;;6337387;22;20696;-90
2023/09/01 01:24:47;;;;;;;0.30;0.30;;;24.30;66.40;;;;;;6339195;22;20180;-89
2023/09/01 01:27:19;;;;;;;0.30;0.28;;;24.30;66.40;;;;;;6338427;22;20165;-90
2023/09/01 01:29:51;;;;;;;0.60;0.60;;;24.30;66.40;;;;;;6340187;22;20318;-89
2023/09/01 01:32:19;;;;;;;1.65;0.95;;;24.30;66.50;;;;;;6338164;22;20169;-90
2023/09/01 01:34:56;;;;;;;0.40;0.40;;;24.30;66.70;;;;;;6339435;22;20604;-89
2023/09/01 01:37:30;;;;;;;2.47;0.82;;;24.20;66.70;;;;;;6337301;22;20167;-88
2023/09/01 01:40:05;;;;;;;0.82;0.40;;;24.20;66.90;;;;;;6339408;22;20163;-89
2023/09/01 01:42:37;;;;;;;0.43;0.43;;;24.20;67.00;;;;;;6338557;22;20644;-88
2023/09/01 01:45:07;;;;;;;0.50;0.40;;;24.10;67.00;;;;;;6338798;22;20165;-90
2023/09/01 01:47:36;;;;;;;0.68;0.57;;;24.10;67.50;;;;;;6339160;22;20619;-89
2023/09/01 01:50:05;;;;;;;0.30;0.30;;;24.10;67.70;;;;;;6338656;22;20164;-89
2023/09/01 01:52:34;;;;;;;0.43;0.40;;;24.00;67.80;;;;;;6337700;22;20459;-89
2023/09/01 01:55:07;;;;;;;0.80;0.43;;;24.00;67.80;;;;;;6339522;22;20160;-89
2023/09/01 01:57:36;;;;;;;0.40;0.40;;;24.00;67.80;;;;;;6337800;22;20161;-90
2023/09/01 02:00:11;;;;;;;2.03;0.80;;;24.00;67.80;;;;;;6339647;22;20229;-89
2023/09/01 02:02:39;;;;;;;0.20;0.20;;;23.90;67.80;;;;;;6339281;22;20228;-89
2023/09/01 02:05:08;;;;;;;0.65;0.65;;;23.90;67.80;;;;;;6339206;22;20222;-89
2023/09/01 02:07:37;;;;;;;0.50;0.50;;;23.90;67.90;;;;;;6338052;22;20210;-88
2023/09/01 02:10:08;;;;;;;1.40;0.65;;;23.90;68.00;;;;;;6311439;22;20164;-89
2023/09/01 02:12:37;;;;;;;0.30;0.30;;;23.90;68.60;;;;;;6337493;22;20551;-89
2023/09/01 02:15:08;;;;;;;0.50;0.50;;;23.80;68.70;;;;;;6339130;22;20481;-88
2023/09/01 02:17:37;;;;;;;0.75;0.70;;;23.80;69.70;;;;;;6337429;22;20165;-89
2023/09/01 02:20:16;;;;;;;0.40;0.40;;;23.80;69.70;;;;;;6338926;22;20164;-88
2023/09/01 02:22:45;;;;;;;0.50;0.35;;;23.70;69.70;;;;;;6337734;22;20228;-88
2023/09/01 02:25:15;;;;;;;1.08;0.75;;;23.70;69.70;;;;;;6338882;22;20192;-88
2023/09/01 02:27:44;;;;;;;0.75;0.52;;;23.70;69.60;;;;;;6337758;22;20535;-88
2023/09/01 02:30:14;;;;;;;0.25;0.25;;;23.70;69.60;;;;;;6338581;22;20492;-89
2023/09/01 02:32:43;;;;;;;0.40;0.40;;;23.70;69.60;;;;;;6337649;22;20188;-88
2023/09/01 02:35:11;;;;;;;0.40;0.40;;;23.60;69.70;;;;;;6338232;22;20160;-88
2023/09/01 02:37:40;;;;;;;0.43;0.40;;;23.60;69.90;;;;;;6337120;22;20187;-89
2023/09/01 02:40:11;;;;;;;0.45;0.45;;;23.60;69.90;;;;;;6338926;22;20165;-87
2023/09/01 02:42:42;;;;;;;0.40;0.40;;;23.60;69.90;;;;;;6337624;22;20251;-89
2023/09/01 02:45:12;;;;;;;0.65;0.65;;;23.60;69.90;;;;;;6337698;22;20506;-88
2023/09/01 02:47:43;;;;;;;0.28;0.28;;;23.60;69.90;;;;;;6337432;22;20221;-89
2023/09/01 02:50:12;;;;;;;0.65;0.38;;;23.60;69.90;;;;;;6338917;22;20388;-89
2023/09/01 02:52:41;;;;;;;0.80;0.40;;;23.60;69.90;;;;;;6338579;22;20184;-88
2023/09/01 02:55:10;;;;;;;0.22;0.22;;;23.60;70.00;;;;;;6337874;22;20165;-88
2023/09/01 02:57:39;;;;;;;0.73;0.73;;;23.60;70.00;;;;;;6337633;22;20161;-87
2023/09/01 03:00:18;;;;;;;0.65;0.65;;;23.60;70.00;;;;;;6336801;22;20165;-89
2023/09/01 03:02:47;;;;;;;0.30;0.30;;;23.60;70.20;;;;;;6337630;22;20167;-87
2023/09/01 03:05:15;;;;;;;0.75;0.75;;;23.50;70.20;;;;;;6338241;22;20499;-88
2023/09/01 03:07:44;;;;;;;0.30;0.30;;;23.50;70.30;;;;;;6338338;22;20616;-88
2023/09/01 03:10:13;;;;;;;0.30;0.30;;;23.50;70.60;;;;;;6337180;22;20161;-88
2023/09/01 03:12:41;;;;;;;1.55;1.20;;;23.50;70.70;;;;;;6336759;22;20192;-88
2023/09/01 03:15:12;;;;;;;1.58;1.10;;;23.50;71.10;;;;;;6338634;22;20168;-87
2023/09/01 03:17:41;;;;;;;1.73;0.65;;;23.50;71.40;;;;;;6337253;22;20153;-87
2023/09/01 03:20:12;;;;;;;1.20;0.82;;;23.40;71.50;;;;;;6337086;22;20164;-88
2023/09/01 03:22:40;;;;;;;0.43;0.43;;;23.40;71.70;;;;;;6338163;22;20161;-89
2023/09/01 03:25:10;;;;;;;1.17;0.57;;;23.40;71.70;;;;;;6338030;22;20160;-88
2023/09/01 03:27:39;;;;;;;0.68;0.50;;;23.40;71.60;;;;;;6337440;22;20589;-88
2023/09/01 03:30:09;;;;;;;0.40;0.40;;;23.30;71.50;;;;;;6339181;22;20206;-89
2023/09/01 03:32:40;;;;;;;0.52;0.52;;;23.30;71.50;;;;;;6334685;22;20216;-89
2023/09/01 03:35:09;;;;;;;0.38;0.38;;;23.30;71.40;;;;;;6337563;22;20164;-88
2023/09/01 03:37:38;;;;;;;1.02;0.80;;;23.30;71.50;;;;;;6337953;22;20250;-88
2023/09/01 03:40:09;;;;;;;0.30;0.30;;;23.30;71.60;;;;;;6337166;22;20167;-88
2023/09/01 03:42:39;;;;;;;0.10;0.10;;;23.30;71.60;;;;;;6337548;22;20203;-88
2023/09/01 03:45:08;;;;;;;1.70;0.52;;;23.30;71.60;;;;;;6338173;22;20552;-88
2023/09/01 03:47:39;;;;;;;2.53;1.05;;;23.20;71.60;;;;;;6336762;22;20165;-88
2023/09/01 03:50:08;;;;;;;0.38;0.38;;;23.30;71.60;;;;;;6336914;22;20609;-88
2023/09/01 03:52:38;;;;;;;0.43;0.43;;;23.30;71.60;;;;;;6337984;22;20233;-89
2023/09/01 03:55:08;;;;;;;1.00;0.88;;;23.30;71.70;;;;;;6338376;22;20171;-89
2023/09/01 03:57:36;;;;;;;0.20;0.20;;;23.30;71.80;;;;;;6337004;22;20164;-87
2023/09/01 04:00:10;;;;;;;0.73;0.73;;;23.30;71.80;;;;;;6338765;22;20161;-87
2023/09/01 04:02:40;;;;;;;0.55;0.50;;;23.30;71.80;;;;;;6337986;22;20187;-88
2023/09/01 04:05:09;;;;;;;0.50;0.50;;;23.40;71.90;;;;;;6337785;22;20239;-88
2023/09/01 04:07:38;;;;;;;0.38;0.38;;;23.30;71.80;;;;;;6338830;22;20194;-88
2023/09/01 04:10:09;;;;;;;0.77;0.60;;;23.30;71.70;;;;;;6341022;22;20166;-89
2023/09/01 04:12:41;;;;;;;0.47;0.40;;;23.30;71.70;;;;;;6340462;22;20187;-88
2023/09/01 04:15:11;;;;;;;0.43;0.43;;;23.40;71.80;;;;;;6359248;22;20196;-88
2023/09/01 04:17:41;;;;;;;0.35;0.35;;;23.40;71.80;;;;;;6359717;22;20164;-86
2023/09/01 04:20:10;;;;;;;0.40;0.40;;;23.40;72.10;;;;;;6360314;22;20168;-89
2023/09/01 04:22:39;;;;;;;1.65;0.50;;;23.40;72.00;;;;;;6361886;22;20171;-88
2023/09/01 04:25:08;;;;;;;0.30;0.30;;;23.40;72.10;;;;;;6362709;22;20228;-88
2023/09/01 04:27:36;;;;;;;0.45;0.45;;;23.40;72.00;;;;;;6362994;22;20165;-89
2023/09/01 04:30:06;;;;;;;0.38;0.35;;;23.40;72.10;;;;;;6365671;22;20149;-89
2023/09/01 04:32:38;;;;;;;0.32;0.32;;;23.40;72.20;;;;;;6363184;22;20195;-88
2023/09/01 04:35:09;;;;;;;2.75;1.48;;;23.40;73.00;;;;;;6363753;22;20184;-89
2023/09/01 04:37:38;;;;;;;0.85;0.43;;;23.50;72.30;;;;;;6363202;22;20164;-89
2023/09/01 04:40:10;;;;;;;0.50;0.50;;;23.50;72.30;;;;;;6353184;22;20165;-91
2023/09/01 04:42:39;;;;;;;0.30;0.30;;;23.50;72.20;;;;;;6340993;22;20192;-89
2023/09/01 04:45:09;;;;;;;1.48;0.77;;;23.50;72.20;;;;;;6340610;22;20184;-90
2023/09/01 04:47:38;;;;;;;0.63;0.47;;;23.60;72.20;;;;;;6340374;22;20161;-88
2023/09/01 04:50:09;;;;;;;0.82;0.70;;;23.60;73.10;;;;;;6340423;22;20165;-89
2023/09/01 04:52:37;;;;;;;0.80;0.63;;;23.60;72.20;;;;;;6339883;22;20180;-89
2023/09/01 04:55:10;;;;;;;0.35;0.35;;;23.70;72.10;;;;;;6340299;22;20601;-89
2023/09/01 04:57:39;;;;;;;0.82;0.52;;;23.70;71.90;;;;;;6339547;22;20616;-89
2023/09/01 05:00:15;;;;;;;0.75;0.75;;;23.80;71.90;;;;;;6339635;22;20168;-88
2023/09/01 05:02:46;;;;;;;1.50;1.05;;;23.80;72.10;;;;;;6338576;22;20172;-88
2023/09/01 05:05:16;;;;;;;0.65;0.40;;;23.80;73.10;;;;;;6339215;22;20175;-88
2023/09/01 05:07:45;;;;;;;0.82;0.60;;;23.80;72.20;;;;;;6339137;22;20236;-92
2023/09/01 05:10:20;;;;;;;0.40;0.40;;;23.80;72.40;;;;;;6340722;22;20168;-90
2023/09/01 05:12:52;;;;;;;0.40;0.40;;;23.90;72.20;;;;;;6339700;22;20180;-89
2023/09/01 05:15:23;;;;;;;1.23;0.88;;;23.90;72.00;;;;;;6339750;22;20164;-89
2023/09/01 05:17:52;;;;;;;0.30;0.30;;;23.90;71.80;;;;;;6338567;22;20206;-88
2023/09/01 05:20:22;;;;;;;5.78;1.05;;;24.00;71.70;;;;;;6338189;22;20218;-86
2023/09/01 05:22:51;;;;;;;1.27;1.17;;;24.00;71.60;;;;;;6339602;22;20173;-88
2023/09/01 05:25:20;;;;;;;0.47;0.38;;;24.10;71.50;;;;;;6336970;22;20168;-88
2023/09/01 05:27:52;;;;;;;0.75;0.63;;;24.10;71.30;;;;;;6338200;22;20167;-89
2023/09/01 05:30:20;;;;;;;0.40;0.40;;;24.10;71.20;;;;;;6339914;22;20163;-87
2023/09/01 05:32:49;;;;;;;0.50;0.50;;;24.20;71.40;;;;;;6337989;22;20192;-87
2023/09/01 05:35:18;;;;;;;0.43;0.43;;;24.20;71.40;;;;;;6339072;22;20173;-87
2023/09/01 05:37:48;;;;;;;0.25;0.25;;;24.20;71.40;;;;;;6337351;22;20164;-88
2023/09/01 05:40:17;;;;;;;1.33;0.88;;;24.30;71.40;;;;;;6339411;22;20166;-87
2023/09/01 05:42:46;;;;;;;0.60;0.60;;;24.30;71.50;;;;;;6339759;22;20199;-89
2023/09/01 05:45:15;;;;;;;5.72;1.10;;;24.40;71.40;;;;;;6339212;22;20484;-88
2023/09/01 05:47:44;;;;;;;1.30;0.63;;;24.50;71.40;;;;;;6338129;22;20605;-88
2023/09/01 05:50:13;;;;;;;6.97;0.75;;;24.50;71.40;;;;;;6338925;22;20168;-88
2023/09/01 05:52:43;;;;;;;0.22;0.22;;;24.50;71.30;;;;;;6338954;22;20226;-89
2023/09/01 05:55:15;;;;;;;0.45;0.45;;;24.60;71.20;;;;;;6338784;22;20218;-88
2023/09/01 05:57:44;;;;;;;4.40;1.38;;;24.70;71.20;;;;;;6338556;22;20252;-89
2023/09/01 06:00:13;;;;;;;1.13;1.02;;;24.80;71.20;;;;;;6339581;22;20167;-91
2023/09/01 06:02:42;;;;;;;0.22;0.20;;;24.80;71.00;;;;;;6339570;22;20585;-88
2023/09/01 06:05:11;;;;;;;1.80;0.40;;;24.90;71.00;;;;;;6339630;22;20500;-90
2023/09/01 06:07:40;;;;;;;0.50;0.25;;;25.00;70.80;;;;;;6339306;22;20213;-88
2023/09/01 06:10:14;;;;;;;0.40;0.40;;;25.00;70.70;;;;;;6339837;22;20244;-88
2023/09/01 06:12:46;;;;;;;0.22;0.22;;;25.10;70.70;;;;;;6339515;22;20251;-91
2023/09/01 06:15:17;;;;;;;0.73;0.47;;;25.20;70.60;;;;;;6338927;22;20168;-87
2023/09/01 06:17:46;;;;;;;0.43;0.43;;;25.20;70.50;;;;;;6337471;22;20190;-88
2023/09/01 06:20:15;;;;;;;0.30;0.30;;;25.30;70.20;;;;;;6338491;22;20186;-87
2023/09/01 06:22:48;;;;;;;1.50;0.45;;;25.30;69.80;;;;;;6338048;22;20219;-88
2023/09/01 06:25:19;;;;;;;1.10;1.00;;;25.40;69.40;;;;;;6338856;22;20241;-86
2023/09/01 06:27:48;;;;;;;0.50;0.50;;;25.40;68.80;;;;;;6338146;22;20172;-90
2023/09/01 06:30:24;;;;;;;0.63;0.40;;;25.50;68.60;;;;;;6338756;22;20168;-89
2023/09/01 06:32:53;;;;;;;0.38;0.38;;;25.60;68.50;;;;;;6337770;22;20189;-90
2023/09/01 06:35:21;;;;;;;0.40;0.40;;;25.60;67.70;;;;;;6336352;22;20847;-87
2023/09/01 06:37:50;;;;;;;0.52;0.52;;;25.70;67.60;;;;;;6338196;22;20243;-87
2023/09/01 06:40:21;;;;;;;1.77;1.13;;;25.80;67.70;;;;;;6338922;22;20164;-89
2023/09/01 06:42:49;;;;;;;1.10;0.82;;;25.80;66.90;;;;;;6337953;22;20198;-87
2023/09/01 06:45:18;;;;;;;0.50;0.50;;;25.90;67.00;;;;;;6337292;22;20511;-85
2023/09/01 06:47:49;;;;;;;0.70;0.32;;;26.00;66.70;;;;;;6336384;22;20165;-87
2023/09/01 06:50:17;;;;;;;0.82;0.38;;;26.10;66.90;;;;;;6338293;22;20246;-85
2023/09/01 06:52:54;;;;;;;0.47;0.47;;;26.20;66.90;;;;;;6336696;22;20176;-89
2023/09/01 06:55:24;;;;;;;0.40;0.40;;;26.30;66.00;;;;;;6338343;22;20156;-88
2023/09/01 06:57:57;;;;;;;1.00;0.95;;;26.40;65.20;;;;;;6337116;22;20187;-89
2023/09/01 07:00:26;;;;;;;0.80;0.43;;;26.40;64.80;;;;;;6337481;22;20171;-88
2023/09/01 07:02:54;;;;;;;0.40;0.40;;;26.50;63.70;;;;;;6338196;22;20168;-89
2023/09/01 07:05:24;;;;;;;0.47;0.47;;;26.60;62.90;;;;;;6338630;22;20222;-86
2023/09/01 07:07:52;;;;;;;0.57;0.57;;;26.60;62.80;;;;;;6337996;22;20632;-86
2023/09/01 07:10:27;;;;;;;0.73;0.73;;;26.70;63.00;;;;;;6338599;22;20164;-90
2023/09/01 07:12:56;;;;;;;0.63;0.43;;;26.80;62.60;;;;;;6337324;22;20180;-87
2023/09/01 07:15:25;;;;;;;9.45;0.95;;;26.90;62.30;;;;;;6336572;22;20610;-85
2023/09/01 07:17:57;;;;;;;0.30;0.30;;;26.90;62.20;;;;;;6337166;22;20531;-88
2023/09/01 07:20:28;;;;;;;0.63;0.45;;;27.00;61.40;;;;;;6338051;22;20259;-88
2023/09/01 07:22:57;;;;;;;0.30;0.30;;;27.10;61.40;;;;;;6337811;22;20157;-89
2023/09/01 07:25:29;;;;;;;0.55;0.50;;;27.20;61.30;;;;;;6337939;22;20161;-89
2023/09/01 07:27:58;;;;;;;0.85;0.80;;;27.20;61.50;;;;;;6337560;22;20160;-87
2023/09/01 07:30:27;;;;;;;1.65;0.75;;;27.30;60.70;;;;;;6338638;22;20240;-86
2023/09/01 07:32:55;;;;;;;0.57;0.57;;;27.30;60.70;;;;;;6336614;22;20481;-87
2023/09/01 07:35:24;;;;;;;0.40;0.40;;;27.40;60.90;;;;;;6337926;22;20215;-85
2023/09/01 07:37:52;;;;;;;0.50;0.50;;;27.50;60.80;;;;;;6336716;22;20164;-86
2023/09/01 07:40:21;;;;;;;0.40;0.40;;;27.60;60.60;;;;;;6336400;22;20169;-87
2023/09/01 07:42:51;;;;;;;0.80;0.60;;;27.60;60.60;;;;;;6337012;22;20215;-87
2023/09/01 07:45:20;;;;;;;0.68;0.57;;;27.70;60.80;;;;;;6337888;22;20249;-87
2023/09/01 07:47:51;;;;;;;1.33;0.40;;;27.80;60.70;;;;;;6334810;22;20180;-88
2023/09/01 07:50:40;;;;;;;0.93;0.77;;;27.80;60.70;;;;;;6336173;22;20244;-88
2023/09/01 07:53:09;;;;;;;0.63;0.45;;;27.90;60.90;;;;;;6336159;22;20168;-87
2023/09/01 07:55:37;;;;;;;0.35;0.30;;;28.00;60.70;;;;;;6337029;22;20664;-85
2023/09/01 07:58:07;;;;;;;0.32;0.32;;;28.00;60.50;;;;;;6335584;22;20303;-85
2023/09/01 08:00:37;;;;;;;7.57;0.60;;;28.00;60.50;;;;;;6337476;22;20160;-84
2023/09/01 08:03:10;;;;;;;0.30;0.30;;;28.00;60.20;;;;;;6336573;22;20159;-85
2023/09/01 08:05:40;;;;;;;0.30;0.30;;;28.00;59.90;;;;;;6336789;22;20628;-84
2023/09/01 08:08:12;;;;;;;0.35;0.35;;;28.10;60.10;;;;;;6336961;22;20244;-87
2023/09/01 08:10:42;;;;;;;0.30;0.30;;;28.10;59.80;;;;;;6337659;22;20218;-83
2023/09/01 08:13:11;;;;;;;0.63;0.63;;;28.20;59.70;;;;;;6337281;22;20164;-89
2023/09/01 08:15:40;;;;;;;0.65;0.65;;;28.20;59.50;;;;;;6336710;22;20638;-84
2023/09/01 08:18:08;;;;;;;0.50;0.50;;;28.30;59.30;;;;;;6336998;22;20501;-87
2023/09/01 08:20:37;;;;;;;0.75;0.75;;;28.40;59.00;;;;;;6336426;22;20566;-87
2023/09/01 08:23:06;;;;;;;0.73;0.38;;;28.50;59.10;;;;;;6336266;22;20160;-86
2023/09/01 08:25:34;;;;;;;0.68;0.55;;;28.50;59.00;;;;;;6336827;22;20658;-86
2023/09/01 08:28:04;;;;;;;0.40;0.40;;;28.60;58.90;;;;;;6336338;22;20658;-87
2023/09/01 08:30:34;;;;;;;0.50;0.40;;;28.60;58.40;;;;;;6337024;22;20169;-84
2023/09/01 08:33:04;;;;;;;0.60;0.60;;;28.70;57.90;;;;;;6336348;22;20235;-87
2023/09/01 08:35:32;;;;;;;0.32;0.32;;;28.70;57.90;;;;;;6335709;22;20245;-87
2023/09/01 08:38:02;;;;;;;0.57;0.43;;;28.70;58.20;;;;;;6336061;22;20168;-88
2023/09/01 08:40:31;;;;;;;0.25;0.25;;;28.70;57.80;;;;;;6337525;22;20269;-88
2023/09/01 08:43:02;;;;;;;1.33;0.52;;;28.80;57.60;;;;;;6336123;22;20171;-88
2023/09/01 08:45:34;;;;;;;1.15;0.38;;;28.80;57.90;;;;;;6337363;22;20536;-88
2023/09/01 08:48:04;;;;;;;0.57;0.32;;;28.80;57.90;;;;;;6334936;22;20160;-86
2023/09/01 08:50:34;;;;;;;0.70;0.60;;;28.90;58.00;;;;;;6336892;22;20181;-87
2023/09/01 08:53:04;;;;;;;0.32;0.30;;;29.00;58.10;;;;;;6336028;22;20172;-86
2023/09/01 08:55:38;;;;;;;0.20;0.20;;;29.00;58.20;;;;;;6337792;22;20194;-86
2023/09/01 08:58:07;;;;;;;0.50;0.50;;;29.10;58.20;;;;;;6337948;22;20609;-87
2023/09/01 09:00:36;;;;;;;0.30;0.20;;;29.20;58.00;;;;;;6337065;22;20243;-86
2023/09/01 09:03:06;;;;;;;0.60;0.25;;;29.20;57.80;;;;;;6337360;22;20171;-86
2023/09/01 09:05:36;;;;;;;1.00;0.40;;;29.20;56.80;;;;;;6338740;22;20160;-85
2023/09/01 09:08:07;;;;;;;1.02;0.73;;;29.10;57.00;;;;;;6337196;22;20172;-87
2023/09/01 09:10:36;;;;;;;0.47;0.43;;;29.10;57.10;;;;;;6338837;22;20582;-85
2023/09/01 09:13:21;;;;;;;0.30;0.30;;;29.20;57.30;;;;;;6335847;22;20229;-87
2023/09/01 09:16:07;;;;;;;0.75;0.60;;;29.20;57.10;;;;;;6336710;22;20268;-85
2023/09/01 09:18:45;;;;;;;1.27;0.60;;;29.30;57.30;;;;;;6340100;22;20160;-91
2023/09/01 09:21:26;;;;;;;0.55;0.55;;;29.40;57.40;;;;;;6337505;22;20192;-86
2023/09/01 09:23:55;;;;;;;0.65;0.50;;;29.50;57.60;;;;;;6338780;22;20160;-85
2023/09/01 09:26:43;;;;;;;0.98;0.93;;;29.50;57.30;;;;;;6337860;22;20165;-86
2023/09/01 09:29:15;;;;;;;0.30;0.30;;;29.60;57.30;;;;;;6335834;22;20480;-85
2023/09/01 09:31:44;;;;;;;0.40;0.40;;;29.60;57.10;;;;;;6337983;22;20153;-86
2023/09/01 09:34:19;;;;;;;0.70;0.50;;;29.60;57.20;;;;;;6338177;22;20243;-88
2023/09/01 09:36:49;;;;;;;0.20;0.20;;;29.60;57.20;;;;;;6337093;22;20182;-87
2023/09/01 09:39:24;;;;;;;1.02;0.70;;;29.60;57.10;;;;;;6337609;22;20508;-87
2023/09/01 09:41:56;;;;;;;0.82;0.70;;;29.60;56.90;;;;;;6337224;22;20250;-86
2023/09/01 09:44:29;;;;;;;0.80;0.80;;;29.60;56.40;;;;;;6338394;22;20243;-86
2023/09/01 09:46:58;;;;;;;0.80;0.60;;;29.60;56.20;;;;;;6336938;22;20157;-87
2023/09/01 09:49:32;;;;;;;1.33;0.60;;;29.50;55.80;;;;;;6338954;22;20203;-87
2023/09/01 09:52:03;;;;;;;0.40;0.40;;;29.60;56.00;;;;;;6337058;22;20160;-87
2023/09/01 09:54:34;;;;;;;0.55;0.55;;;29.60;56.10;;;;;;6338433;22;20615;-86
2023/09/01 09:57:07;;;;;;;0.68;0.55;;;29.60;56.30;;;;;;6336024;22;20501;-86
2023/09/01 09:59:44;;;;;;;0.32;0.32;;;29.60;56.10;;;;;;6338957;22;20239;-86
2023/09/01 10:02:23;;;;;;;0.30;0.30;;;29.70;56.10;;;;;;6335540;22;20152;-87
2023/09/01 10:04:54;;;;;;;0.32;0.25;;;29.80;56.20;;;;;;6338970;22;20218;-87
2023/09/01 10:07:23;;;;;;;0.43;0.32;;;29.90;56.10;;;;;;6336430;22;20167;-87
2023/09/01 10:09:53;;;;;;;0.50;0.50;;;30.00;56.40;;;;;;6336998;22;20165;-85
2023/09/01 10:12:22;;;;;;;0.85;0.55;;;30.10;56.00;;;;;;6337213;22;20598;-87
2023/09/01 10:14:51;;;;;;;0.68;0.60;;;30.10;55.00;;;;;;6336625;22;20683;-87
2023/09/01 10:17:22;;;;;;;0.20;0.20;;;30.10;54.50;;;;;;6336838;22;20169;-88
2023/09/01 10:19:51;;;;;;;0.35;0.35;;;30.10;54.20;;;;;;6340055;22;20164;-87
2023/09/01 10:22:21;;;;;;;0.73;0.55;;;30.10;53.90;;;;;;6336794;22;20175;-88
2023/09/01 10:25:11;;;;;;;0.30;0.30;;;30.10;54.10;;;;;;6337929;22;20210;-86
2023/09/01 10:28:00;;;;;;;0.20;0.20;;;30.20;54.20;;;;;;6337696;22;20613;-87
2023/09/01 10:30:30;;;;;;;3.22;1.80;;;30.30;54.50;;;;;;6338524;22;20157;-86
2023/09/01 10:33:08;;;;;;;0.45;0.30;;;30.40;54.70;;;;;;6337143;22;20203;-86
2023/09/01 10:35:38;;;;;;;0.45;0.43;;;30.40;54.30;;;;;;6337922;22;20223;-85
2023/09/01 10:38:14;;;;;;;0.40;0.40;;;30.50;54.20;;;;;;6337020;22;20534;-86
2023/09/01 10:40:44;;;;;;;3.47;0.35;;;30.60;53.90;;;;;;6337838;22;20148;-85
2023/09/01 10:43:49;;;;;;;0.28;0.28;;;30.60;53.10;;;;;;6337766;22;20214;-89
2023/09/01 10:46:27;;;;;;;1.08;0.57;;;30.70;53.30;;;;;;6332950;22;20171;-87
2023/09/01 10:48:58;;;;;;;0.40;0.30;;;30.80;53.80;;;;;;6337958;22;20167;-87
2023/09/01 10:51:28;;;;;;;1.00;0.60;;;30.80;52.80;;;;;;6336460;22;20239;-88
2023/09/01 10:54:00;;;;;;;0.40;0.30;;;30.90;53.10;;;;;;6337434;22;20243;-87
2023/09/01 10:56:55;;;;;;;0.57;0.50;;;30.90;52.80;;;;;;6337393;22;20188;-89
2023/09/01 10:59:29;;;;;;;2.20;0.73;;;30.90;51.80;;;;;;6338435;22;20160;-90
2023/09/01 11:02:18;;;;;;;0.30;0.30;;;31.00;52.10;;;;;;6336810;22;20167;-89
2023/09/01 11:04:53;;;;;;;0.40;0.40;;;31.00;51.60;;;;;;6337818;22;20161;-89
2023/09/01 11:07:26;;;;;;;5.93;0.70;;;31.10;51.50;;;;;;6336316;22;20176;-90
2023/09/01 11:09:59;;;;;;;0.40;0.40;;;31.00;51.00;;;;;;6337806;22;20167;-89
2023/09/01 11:12:32;;;;;;;0.40;0.40;;;31.10;51.10;;;;;;6337898;22;20164;-88
2023/09/01 11:15:04;;;;;;;0.50;0.50;;;31.10;51.60;;;;;;6337719;22;20817;-88
2023/09/01 11:17:45;;;;;;;0.20;0.20;;;31.20;51.80;;;;;;6334747;22;20169;-89
2023/09/01 11:20:19;;;;;;;0.70;0.70;;;31.20;51.90;;;;;;6336691;22;20210;-85
2023/09/01 11:22:48;;;;;;;0.60;0.25;;;31.30;52.10;;;;;;6335627;22;20164;-87
2023/09/01 11:25:19;;;;;;;0.22;0.22;;;31.30;51.40;;;;;;6337619;22;20195;-86
2023/09/01 11:27:49;;;;;;;0.30;0.30;;;31.30;51.50;;;;;;6336898;22;20157;-87
2023/09/01 11:30:19;;;;;;;0.40;0.40;;;31.20;51.60;;;;;;6335672;22;20152;-87
2023/09/01 11:32:50;;;;;;;0.65;0.55;;;31.20;51.50;;;;;;6336837;22;20561;-86
2023/09/01 11:35:26;;;;;;;0.40;0.40;;;31.20;51.70;;;;;;6337071;22;20573;-87
2023/09/01 11:37:55;;;;;;;5.68;1.80;;;31.20;51.80;;;;;;6337424;22;20215;-86
2023/09/01 11:40:27;;;;;;;1.00;0.45;;;31.20;51.40;;;;;;6337269;22;20541;-87
2023/09/01 11:42:56;;;;;;;0.65;0.60;;;31.30;51.70;;;;;;6306493;22;20199;-87
2023/09/01 11:45:25;;;;;;;0.28;0.28;;;31.40;51.30;;;;;;6304749;22;20490;-86
2023/09/01 11:47:54;;;;;;;1.42;0.90;;;31.40;52.10;;;;;;6304669;22;20169;-85
2023/09/01 11:50:22;;;;;;;2.45;0.93;;;31.40;51.40;;;;;;6306527;22;20161;-87
2023/09/01 11:52:55;;;;;;;1.10;0.50;;;31.30;51.00;;;;;;6305905;22;20172;-87
2023/09/01 11:55:35;;;;;;;0.20;0.20;;;31.40;51.20;;;;;;6306769;22;20531;-88
2023/09/01 11:58:04;;;;;;;0.90;0.75;;;31.40;51.10;;;;;;6305213;22;20218;-86
2023/09/01 12:00:35;;;;;;;1.48;0.60;;;31.40;51.10;;;;;;6305739;22;20169;-85
2023/09/01 12:03:07;;;;;;;0.93;0.57;;;31.50;51.00;;;;;;6303883;22;20227;-85
2023/09/01 12:05:37;;;;;;;1.40;1.13;;;31.50;50.90;;;;;;6306286;22;20542;-86
2023/09/01 12:08:07;;;;;;;0.63;0.60;;;31.50;51.00;;;;;;6305110;22;20579;-86
2023/09/01 12:10:38;;;;;;;0.70;0.40;;;31.60;50.10;;;;;;6305711;22;20166;-85
2023/09/01 12:13:08;;;;;;;0.30;0.30;;;31.70;50.40;;;;;;6304915;22;20180;-87
2023/09/01 12:15:59;;;;;;;0.40;0.40;;;31.70;50.20;;;;;;6306222;22;20168;-86
2023/09/01 12:18:35;;;;;;;1.95;1.10;;;31.70;50.20;;;;;;6306274;22;20166;-88
2023/09/01 12:21:06;;;;;;;0.63;0.50;;;31.50;49.50;;;;;;6306084;22;20153;-86
2023/09/01 12:23:36;;;;;;;0.50;0.40;;;31.50;49.80;;;;;;6306497;22;20189;-87
2023/09/01 12:26:06;;;;;;;0.50;0.50;;;31.50;50.30;;;;;;6305309;22;20252;-86
2023/09/01 12:28:36;;;;;;;0.40;0.40;;;31.50;50.50;;;;;;6306349;22;20192;-87
2023/09/01 12:31:07;;;;;;;0.65;0.52;;;31.60;50.60;;;;;;6306764;22;20681;-85
2023/09/01 12:33:36;;;;;;;0.70;0.30;;;31.60;50.40;;;;;;6307729;22;20153;-87
2023/09/01 12:36:06;;;;;;;0.30;0.30;;;31.70;50.20;;;;;;6306728;22;20266;-87
2023/09/01 12:38:34;;;;;;;0.40;0.30;;;31.70;50.20;;;;;;6308784;22;20175;-91
2023/09/01 12:41:03;;;;;;;0.30;0.30;;;31.80;50.00;;;;;;6310711;22;20657;-87
2023/09/01 12:43:33;;;;;;;1.38;1.02;;;31.80;50.20;;;;;;6339993;22;20164;-86
2023/09/01 12:46:02;;;;;;;0.30;0.30;;;31.80;50.40;;;;;;6336982;22;20164;-84
2023/09/01 12:48:30;;;;;;;0.50;0.50;;;31.80;50.30;;;;;;6339098;22;20168;-88
2023/09/01 12:50:59;;;;;;;0.30;0.30;;;31.80;49.70;;;;;;6337673;22;20161;-86
2023/09/01 12:53:39;;;;;;;0.60;0.52;;;31.80;49.80;;;;;;6339853;22;20172;-90
2023/09/01 12:56:11;;;;;;;0.95;0.85;;;31.70;49.10;;;;;;6337374;22;20615;-85
2023/09/01 12:58:41;;;;;;;1.65;0.50;;;31.70;49.10;;;;;;6339320;22;20235;-86
2023/09/01 13:01:09;;;;;;;0.57;0.57;;;31.80;49.50;;;;;;6337419;22;20230;-85
2023/09/01 13:03:38;;;;;;;0.20;0.20;;;31.90;49.70;;;;;;6337751;22;20168;-86
2023/09/01 13:06:10;;;;;;;1.38;0.50;;;31.90;49.50;;;;;;6337415;22;20171;-86
2023/09/01 13:08:39;;;;;;;0.75;0.47;;;32.00;49.50;;;;;;6339023;22;20165;-87